Roosevelt, Washington
Current Conditions -  °F | °C
As of 12:53 AM on Friday 24 Oct 2014 (Local Time) from KHRI Reporting Station
Clear Clear  
Wind Chill: 47°   Ceiling: Unl
Heat Index: 49°   Visibility: 10mi
Dew Point: 44°   Wind: 6mph
Humidity: 83%   Direction: 130°SE
Pressure: 30.03"   Gusts: NA
Location:  45.74°N, 120.21°W
Report Text: KHRI 240753Z AUTO 13005KT 10SM CLR 09/07 A3003 RMK AO2 SLP170 T00940067 401500083
Loading
Personal Weather Stations






























Interactive Weather Map New forecast layout! Learn more

10-Day Weather Forecast

Advertisements
Track Severe Weather on mobile